Time;durP1;ratioP1;P1;durP2;ratioP2;P2;SDS_P1;SDS_P2;PMS_P1;PMS_P2;Temp;Humidity;BMP_temperature;BMP_pressure;BME280_temperature;BME280_humidity;BME280_pressure;Samples;Min_cycle;Max_cycle;Signal;HPM_P1;HPM_P2
2023/08/12 00:00:53;;;;;;;7.80;4.28;;;;;;;-142.75;100.00;75995.53;5087562;28;20073;-65
2023/08/12 00:03:19;;;;;;;11.88;3.60;;;;;;;-142.75;100.00;75981.75;5087093;28;20455;-66
2023/08/12 00:05:45;;;;;;;13.75;4.40;;;;;;;-142.75;100.00;75967.97;5087156;28;20017;-65
2023/08/12 00:08:10;;;;;;;11.63;4.10;;;;;;;-142.75;100.00;75967.97;5087365;28;20103;-65
2023/08/12 00:10:36;;;;;;;13.52;4.45;;;;;;;-142.75;100.00;75964.03;5086881;28;20152;-64
2023/08/12 00:13:01;;;;;;;12.18;4.20;;;;;;;-142.75;100.00;75952.25;5086678;28;20012;-65
2023/08/12 00:15:27;;;;;;;9.88;4.30;;;;;;;-142.75;100.00;75948.31;5087093;28;20055;-65
2023/08/12 00:17:52;;;;;;;10.00;3.90;;;;;;;-142.75;100.00;75946.34;5086968;28;20028;-65
2023/08/12 00:20:18;;;;;;;12.15;4.60;;;;;;;-142.75;100.00;75948.31;5087205;28;20040;-65
2023/08/12 00:22:44;;;;;;;9.55;3.75;;;;;;;-142.75;100.00;75938.47;5086356;28;20414;-64
2023/08/12 00:25:09;;;;;;;12.65;4.63;;;;;;;-142.75;100.00;75948.31;5086838;28;20086;-65
2023/08/12 00:27:35;;;;;;;13.07;4.22;;;;;;;-142.75;100.00;75952.25;5065618;28;20021;-65
2023/08/12 00:30:00;;;;;;;6.65;3.70;;;;;;;-142.75;100.00;75944.38;5067059;28;20360;-65
2023/08/12 00:32:26;;;;;;;7.93;4.13;;;;;;;-142.75;100.00;75936.50;5067192;28;20537;-65
2023/08/12 00:34:51;;;;;;;9.20;4.00;;;;;;;-142.75;100.00;75936.50;5065324;28;20012;-65
2023/08/12 00:37:16;;;;;;;9.13;3.60;;;;;;;-142.75;100.00;75932.56;5066871;28;20016;-65
2023/08/12 00:39:42;;;;;;;5.72;3.28;;;;;;;-142.75;100.00;75930.59;5066235;28;20074;-65
2023/08/12 00:42:07;;;;;;;6.00;3.30;;;;;;;-142.75;100.00;75932.56;5066241;28;20498;-65
2023/08/12 00:44:32;;;;;;;6.97;3.30;;;;;;;-142.75;100.00;75936.50;5066365;28;20035;-65
2023/08/12 00:46:58;;;;;;;10.77;3.15;;;;;;;-142.75;100.00;75926.66;5066310;28;20012;-65
2023/08/12 00:49:24;;;;;;;15.07;3.58;;;;;;;-142.75;100.00;75916.81;5066365;28;20020;-65
2023/08/12 00:51:50;;;;;;;6.80;3.92;;;;;;;-142.75;100.00;75914.84;5066312;28;20031;-63
2023/08/12 00:54:16;;;;;;;11.85;3.80;;;;;;;-142.75;100.00;75908.94;5065756;28;20028;-64
2023/08/12 00:56:43;;;;;;;7.10;3.40;;;;;;;-142.75;100.00;75910.91;5066332;28;20016;-65
2023/08/12 00:59:09;;;;;;;11.32;3.97;;;;;;;-142.75;100.00;75903.03;5066201;28;20107;-64
2023/08/12 01:01:35;;;;;;;7.57;3.15;;;;;;;-142.75;100.00;75905.00;5066433;28;20020;-64
2023/08/12 01:04:01;;;;;;;6.63;3.70;;;;;;;-142.75;100.00;75912.88;5065793;28;20020;-64
2023/08/12 01:06:27;;;;;;;12.02;4.20;;;;;;;-142.75;100.00;75891.22;5066084;28;20487;-65
2023/08/12 01:08:53;;;;;;;9.18;4.22;;;;;;;-142.75;100.00;75899.09;5066154;28;20020;-64
2023/08/12 01:11:18;;;;;;;11.70;4.22;;;;;;;-142.75;100.00;75905.00;5065788;28;20051;-64
2023/08/12 01:13:49;;;;;;;10.27;4.55;;;;;;;-142.75;100.00;75905.00;5065845;28;20036;-65
2023/08/12 01:16:17;;;;;;;7.35;4.20;;;;;;;-142.75;100.00;75893.19;5071139;28;20047;-64
2023/08/12 01:18:44;;;;;;;10.50;4.53;;;;;;;-142.75;100.00;75889.25;5085958;28;20094;-64
2023/08/12 01:21:15;;;;;;;7.72;4.40;;;;;;;-142.75;100.00;75881.38;5085879;28;20030;-64
2023/08/12 01:23:41;;;;;;;11.98;4.50;;;;;;;-142.75;100.00;75877.44;5076939;28;20479;-64
2023/08/12 01:26:06;;;;;;;9.43;5.30;;;;;;;-142.75;100.00;75881.38;5070433;28;20413;-64
2023/08/12 01:28:31;;;;;;;10.10;5.53;;;;;;;-142.75;100.00;75873.50;5071225;28;20019;-64
2023/08/12 01:31:12;;;;;;;14.93;5.50;;;;;;;-142.75;100.00;75845.97;5071025;28;20016;-65
2023/08/12 01:33:51;;;;;;;11.43;5.63;;;;;;;-142.75;100.00;75857.78;5069202;28;20621;-64
2023/08/12 01:36:19;;;;;;;9.70;5.65;;;;;;;-142.75;100.00;75847.94;5072348;28;20012;-64
2023/08/12 01:38:48;;;;;;;16.20;7.00;;;;;;;-142.75;100.00;75830.22;5067650;28;20020;-64
2023/08/12 01:41:15;;;;;;;11.52;5.65;;;;;;;-142.75;100.00;75814.47;5068421;28;20032;-64
2023/08/12 01:43:41;;;;;;;13.52;6.90;;;;;;;-142.75;100.00;75820.38;5065247;28;20028;-65
2023/08/12 01:46:07;;;;;;;13.85;6.22;;;;;;;-142.75;100.00;75822.34;5065447;28;20016;-64
2023/08/12 01:48:32;;;;;;;11.43;6.50;;;;;;;-142.75;100.00;75808.56;5065293;28;20016;-64
2023/08/12 01:50:58;;;;;;;14.90;6.75;;;;;;;-142.75;100.00;75806.59;5065197;28;20626;-65
2023/08/12 01:53:23;;;;;;;14.45;6.40;;;;;;;-142.75;100.00;75806.59;5064943;28;20069;-65
2023/08/12 01:55:50;;;;;;;15.38;7.38;;;;;;;-142.75;100.00;75800.69;5065296;28;20495;-65
2023/08/12 01:58:15;;;;;;;18.77;7.10;;;;;;;-142.75;100.00;75798.72;5065575;28;20097;-65
2023/08/12 02:00:41;;;;;;;12.45;6.70;;;;;;;-142.75;100.00;75794.78;5065196;28;20435;-65
2023/08/12 02:03:06;;;;;;;14.35;7.13;;;;;;;-142.75;100.00;75794.78;5065195;28;20283;-64
2023/08/12 02:05:32;;;;;;;12.98;7.15;;;;;;;-142.75;100.00;75786.91;5065092;28;20599;-64
2023/08/12 02:07:58;;;;;;;14.20;6.50;;;;;;;-142.75;100.00;75779.03;5065379;28;20109;-65
2023/08/12 02:10:23;;;;;;;17.88;7.53;;;;;;;-142.75;100.00;75775.09;5065024;28;20047;-65
2023/08/12 02:12:48;;;;;;;17.55;7.70;;;;;;;-142.75;100.00;75771.16;5064774;28;20082;-64
2023/08/12 02:15:14;;;;;;;16.80;7.60;;;;;;;-142.75;100.00;75769.19;5080537;28;20046;-64
2023/08/12 02:17:39;;;;;;;14.57;7.43;;;;;;;-142.75;100.00;75769.19;5085223;28;20068;-65
2023/08/12 02:20:05;;;;;;;17.45;8.02;;;;;;;-142.75;100.00;75767.22;5085259;28;20016;-64
2023/08/12 02:22:30;;;;;;;17.48;9.05;;;;;;;-142.75;100.00;75767.22;5084785;28;20031;-65
2023/08/12 02:24:56;;;;;;;13.23;7.68;;;;;;;-142.75;100.00;75775.09;5084759;28;20020;-65
2023/08/12 02:27:21;;;;;;;13.52;8.05;;;;;;;-142.75;100.00;75767.22;5085244;28;20019;-64
2023/08/12 02:29:47;;;;;;;18.30;8.77;;;;;;;-142.75;100.00;75769.19;5084956;28;20378;-65
2023/08/12 02:32:12;;;;;;;14.32;7.95;;;;;;;-142.75;100.00;75763.28;5085217;28;20399;-64
2023/08/12 02:34:37;;;;;;;15.35;8.80;;;;;;;-142.75;100.00;75751.50;5084560;28;20379;-64
2023/08/12 02:37:03;;;;;;;16.58;8.45;;;;;;;-142.75;100.00;75743.63;5084944;28;20459;-64
2023/08/12 02:39:28;;;;;;;19.85;8.45;;;;;;;-142.75;100.00;75755.44;5084929;28;20020;-65
2023/08/12 02:41:53;;;;;;;16.77;9.05;;;;;;;-142.75;100.00;75743.63;5084628;28;20016;-65
2023/08/12 02:44:19;;;;;;;14.07;8.15;;;;;;;-142.75;100.00;75729.84;5084560;28;20100;-64
2023/08/12 02:46:44;;;;;;;18.17;8.00;;;;;;;-142.75;100.00;75731.81;5084910;28;20024;-64
2023/08/12 02:49:10;;;;;;;15.95;8.30;;;;;;;-142.75;100.00;75727.88;5084729;28;20023;-64
2023/08/12 02:51:35;;;;;;;16.77;7.68;;;;;;;-142.75;100.00;75720.00;5085052;28;20137;-64
2023/08/12 02:54:00;;;;;;;18.60;8.77;;;;;;;-142.75;100.00;75725.91;5084584;28;20150;-64
2023/08/12 02:56:26;;;;;;;16.13;8.02;;;;;;;-142.75;100.00;75706.22;5084777;28;20074;-64
2023/08/12 02:58:52;;;;;;;18.40;9.38;;;;;;;-142.75;100.00;75704.25;5084817;28;20032;-64
2023/08/12 03:01:17;;;;;;;19.02;8.63;;;;;;;-142.75;100.00;75706.22;5083568;28;20138;-64
2023/08/12 03:03:43;;;;;;;14.07;8.40;;;;;;;-142.75;100.00;75702.28;5067200;28;20503;-64
2023/08/12 03:06:08;;;;;;;20.33;9.10;;;;;;;-142.75;100.00;75704.25;5068593;28;20063;-64
2023/08/12 03:08:33;;;;;;;19.15;9.07;;;;;;;-142.75;100.00;75696.38;5068653;28;20040;-65
2023/08/12 03:11:00;;;;;;;16.85;9.43;;;;;;;-142.75;100.00;75692.44;5068383;28;20024;-64
2023/08/12 03:13:25;;;;;;;18.50;8.70;;;;;;;-142.75;100.00;75678.66;5067862;28;20103;-64
2023/08/12 03:15:51;;;;;;;16.35;9.02;;;;;;;-142.75;100.00;75672.78;5068127;28;20120;-64
2023/08/12 03:18:16;;;;;;;15.63;8.38;;;;;;;-142.75;100.00;75666.88;5068154;28;20025;-64
2023/08/12 03:20:41;;;;;;;17.20;8.75;;;;;;;-142.75;100.00;75657.03;5068240;28;20020;-64
2023/08/12 03:23:07;;;;;;;16.80;8.50;;;;;;;-142.75;100.00;75645.22;5067795;28;20396;-65
2023/08/12 03:25:32;;;;;;;19.30;9.38;;;;;;;-142.75;100.00;75629.47;5068019;28;20024;-64
2023/08/12 03:27:58;;;;;;;17.25;7.97;;;;;;;-142.75;100.00;75627.50;5084372;28;20049;-63
2023/08/12 03:30:23;;;;;;;20.13;9.20;;;;;;;-142.75;100.00;75629.47;5087485;28;20047;-64
2023/08/12 03:32:49;;;;;;;18.80;9.13;;;;;;;-142.75;100.00;75641.28;5086496;28;20535;-63
2023/08/12 03:35:14;;;;;;;16.17;9.55;;;;;;;-142.75;100.00;75653.09;5087755;28;20008;-64
2023/08/12 03:37:39;;;;;;;16.85;8.95;;;;;;;-142.75;100.00;75649.16;5087893;28;20474;-64
2023/08/12 03:40:06;;;;;;;17.98;8.35;;;;;;;-142.75;100.00;75651.13;5087812;28;20023;-63
2023/08/12 03:42:31;;;;;;;20.60;9.32;;;;;;;-142.75;100.00;75641.28;5087366;28;20016;-64
2023/08/12 03:44:56;;;;;;;15.27;9.15;;;;;;;-142.75;100.00;75633.41;5087538;28;20026;-64
2023/08/12 03:47:24;;;;;;;14.35;8.43;;;;;;;-142.75;100.00;75621.59;5087640;28;20109;-64
2023/08/12 03:49:49;;;;;;;19.25;8.95;;;;;;;-142.75;100.00;75609.78;5087590;28;20015;-64
2023/08/12 03:52:15;;;;;;;19.80;8.93;;;;;;;-142.75;100.00;75605.84;5087434;28;20027;-64
2023/08/12 03:54:40;;;;;;;14.85;8.57;;;;;;;-142.75;100.00;75603.88;5087226;28;20016;-64
2023/08/12 03:57:05;;;;;;;14.82;9.98;;;;;;;-142.75;100.00;75613.72;5087774;28;20020;-64
2023/08/12 03:59:31;;;;;;;16.42;9.75;;;;;;;-142.75;100.00;75633.41;5087591;28;20052;-64
2023/08/12 04:01:57;;;;;;;18.35;9.85;;;;;;;-142.75;100.00;75641.28;5087914;28;20016;-64
2023/08/12 04:04:22;;;;;;;20.67;11.10;;;;;;;-142.75;100.00;75655.06;5086980;28;20038;-64
2023/08/12 04:06:51;;;;;;;15.70;9.50;;;;;;;-142.75;100.00;75623.56;5087223;28;20379;-64
2023/08/12 04:09:19;;;;;;;18.35;10.88;;;;;;;-142.75;100.00;75621.59;5086212;28;20046;-64
2023/08/12 04:11:45;;;;;;;17.75;9.95;;;;;;;-142.75;100.00;75619.63;5087212;28;20422;-65
2023/08/12 04:14:11;;;;;;;20.33;9.63;;;;;;;-142.75;100.00;75621.59;5085992;28;20020;-64
2023/08/12 04:16:37;;;;;;;17.67;10.15;;;;;;;-142.75;100.00;75609.78;5087348;28;20052;-64
2023/08/12 04:19:02;;;;;;;19.85;9.38;;;;;;;-142.75;100.00;75625.53;5087001;28;20583;-64
2023/08/12 04:21:28;;;;;;;15.82;9.98;;;;;;;-142.75;100.00;75617.66;5087093;28;20081;-64
2023/08/12 04:23:53;;;;;;;19.52;8.98;;;;;;;-142.75;100.00;75609.78;5086651;28;20027;-64
2023/08/12 04:26:18;;;;;;;20.33;10.18;;;;;;;-142.75;100.00;75597.97;5086709;28;20111;-64
2023/08/12 04:28:44;;;;;;;21.42;10.88;;;;;;;-142.75;100.00;75613.72;5087042;28;20031;-64
2023/08/12 04:31:09;;;;;;;18.02;9.82;;;;;;;-142.75;100.00;75599.94;5086666;28;20066;-64
2023/08/12 04:33:34;;;;;;;15.82;9.73;;;;;;;-142.75;100.00;75601.91;5086929;28;20019;-64
2023/08/12 04:36:00;;;;;;;17.60;9.27;;;;;;;-142.75;100.00;75607.81;5086768;28;20016;-64
2023/08/12 04:38:25;;;;;;;16.80;9.50;;;;;;;-142.75;100.00;75625.53;5087156;28;20020;-64
2023/08/12 04:40:53;;;;;;;16.27;9.27;;;;;;;-142.75;100.00;75605.84;5086514;28;20043;-64
2023/08/12 04:43:19;;;;;;;18.77;9.77;;;;;;;-142.75;100.00;75596.00;5086292;28;20121;-62
2023/08/12 04:45:45;;;;;;;15.48;8.63;;;;;;;-142.75;100.00;75590.13;5086746;28;20035;-64
2023/08/12 04:48:11;;;;;;;15.55;8.82;;;;;;;-142.75;100.00;75601.91;5086501;28;20020;-64
2023/08/12 04:50:36;;;;;;;15.23;8.25;;;;;;;-142.75;100.00;75594.06;5086582;28;20019;-64
2023/08/12 04:53:01;;;;;;;19.02;9.02;;;;;;;-142.75;100.00;75586.19;5085966;28;20416;-65
2023/08/12 04:55:27;;;;;;;14.70;7.93;;;;;;;-142.75;100.00;75582.25;5083308;28;20016;-64
2023/08/12 04:57:53;;;;;;;16.13;7.88;;;;;;;-142.75;100.00;75597.97;5066347;28;20040;-64
2023/08/12 05:00:19;;;;;;;20.85;7.78;;;;;;;-142.75;100.00;75601.91;5066260;28;20024;-64
2023/08/12 05:02:44;;;;;;;19.95;8.20;;;;;;;-142.75;100.00;75609.78;5074204;28;20028;-64
2023/08/12 05:05:10;;;;;;;20.48;7.80;;;;;;;-142.75;100.00;75594.06;5085416;28;20019;-64
2023/08/12 05:07:35;;;;;;;14.18;6.93;;;;;;;-142.75;100.00;75590.13;5066998;28;20020;-64
2023/08/12 05:10:01;;;;;;;13.45;7.15;;;;;;;-142.75;100.00;75588.16;5066108;28;20023;-64
2023/08/12 05:12:26;;;;;;;12.07;7.97;;;;;;;-142.75;100.00;75603.88;5065745;28;20023;-64
2023/08/12 05:14:52;;;;;;;14.52;6.95;;;;;;;-142.75;100.00;75609.78;5065072;28;20013;-64
2023/08/12 05:17:17;;;;;;;14.48;7.53;;;;;;;-142.75;100.00;75607.81;5084433;28;20447;-64
2023/08/12 05:19:43;;;;;;;14.15;7.25;;;;;;;-142.75;100.00;75605.84;5084994;28;20047;-65
2023/08/12 05:22:08;;;;;;;13.13;7.07;;;;;;;-142.75;100.00;75588.16;5086598;28;20028;-65
2023/08/12 05:24:33;;;;;;;13.82;6.70;;;;;;;-142.75;100.00;75578.31;5085264;28;20479;-65
2023/08/12 05:26:59;;;;;;;12.70;6.22;;;;;;;-142.75;100.00;75578.31;5084801;28;20028;-65
2023/08/12 05:29:24;;;;;;;16.15;6.68;;;;;;;-142.75;100.00;75586.19;5085648;28;20024;-65
2023/08/12 05:31:49;;;;;;;14.60;7.13;;;;;;;-142.75;100.00;75584.22;5085915;28;20047;-64
2023/08/12 05:34:15;;;;;;;12.35;6.93;;;;;;;-142.75;100.00;75586.19;5085334;28;20443;-65
2023/08/12 05:36:40;;;;;;;12.50;6.97;;;;;;;-142.75;100.00;75590.13;5072045;28;20059;-65
2023/08/12 05:39:05;;;;;;;13.73;6.60;;;;;;;-142.75;100.00;75603.88;5066034;28;20044;-65
2023/08/12 05:41:31;;;;;;;13.90;6.97;;;;;;;-142.75;100.00;75627.50;5065335;28;20073;-65
2023/08/12 05:43:56;;;;;;;9.82;5.07;;;;;;;-142.75;100.00;75633.41;5065161;28;20025;-64
2023/08/12 05:46:21;;;;;;;8.75;4.78;;;;;;;-142.75;100.00;75627.50;5065800;28;20136;-64
2023/08/12 05:48:47;;;;;;;6.40;3.75;;;;;;;-142.75;100.00;75623.56;5065678;28;20028;-65
2023/08/12 05:51:12;;;;;;;7.30;3.10;;;;;;;-142.75;100.00;75635.38;5065718;28;20013;-64
2023/08/12 05:53:38;;;;;;;8.05;3.63;;;;;;;-142.75;100.00;75645.22;5065143;28;20027;-64
2023/08/12 05:56:04;;;;;;;4.30;2.72;;;;;;;-142.75;100.00;75629.47;5065355;28;20078;-64
2023/08/12 05:58:29;;;;;;;6.03;2.92;;;;;;;-142.75;100.00;75647.19;5065486;28;20059;-64
2023/08/12 06:00:55;;;;;;;5.15;2.50;;;;;;;-142.75;100.00;75629.47;5065256;28;20021;-64
2023/08/12 06:03:20;;;;;;;4.78;2.65;;;;;;;-142.75;100.00;75629.47;5065363;28;20028;-64
2023/08/12 06:05:46;;;;;;;5.00;2.40;;;;;;;-142.75;100.00;75615.69;5065215;28;20058;-64
2023/08/12 06:08:12;;;;;;;5.38;2.22;;;;;;;-142.75;100.00;75625.53;5065347;28;20471;-64
2023/08/12 06:10:38;;;;;;;5.07;2.40;;;;;;;-142.75;100.00;75613.72;5065259;28;20048;-64
2023/08/12 06:13:03;;;;;;;4.47;2.40;;;;;;;-142.75;100.00;75615.69;5064720;28;20048;-64
2023/08/12 06:15:29;;;;;;;5.90;2.00;;;;;;;-142.75;100.00;75621.59;5065489;28;20028;-64
2023/08/12 06:17:54;;;;;;;3.97;1.60;;;;;;;-142.75;100.00;75613.72;5065111;28;20423;-63
2023/08/12 06:20:19;;;;;;;2.63;1.55;;;;;;;-142.75;100.00;75625.53;5065345;28;20094;-62
2023/08/12 06:22:44;;;;;;;4.03;1.83;;;;;;;-142.75;100.00;75623.56;5065206;28;20474;-63
2023/08/12 06:25:10;;;;;;;3.80;1.90;;;;;;;-142.75;100.00;75603.88;5065214;28;20028;-64
2023/08/12 06:27:35;;;;;;;2.55;1.65;;;;;;;-142.75;100.00;75590.13;5064976;28;20126;-64
2023/08/12 06:30:01;;;;;;;3.33;1.90;;;;;;;-142.75;100.00;75582.25;5063971;28;20090;-64
2023/08/12 06:32:26;;;;;;;2.90;1.60;;;;;;;-142.75;100.00;75599.94;5065206;28;20115;-62
2023/08/12 06:34:51;;;;;;;2.78;1.45;;;;;;;-142.75;100.00;75584.22;5084997;28;20425;-64
2023/08/12 06:37:17;;;;;;;3.55;1.92;;;;;;;-142.75;100.00;75578.31;5084445;28;20051;-64
2023/08/12 06:39:42;;;;;;;6.40;2.08;;;;;;;-142.75;100.00;75566.50;5088002;28;20019;-64
2023/08/12 06:42:07;;;;;;;4.25;1.88;;;;;;;-142.75;100.00;75560.59;5088600;28;20110;-64
2023/08/12 06:44:33;;;;;;;2.90;1.83;;;;;;;-142.75;100.00;75550.75;5087579;28;20031;-64
2023/08/12 06:46:58;;;;;;;3.35;1.92;;;;;;;-142.75;100.00;75550.75;5088989;28;20499;-64
2023/08/12 06:49:23;;;;;;;5.78;2.55;;;;;;;-142.75;100.00;75550.75;5088932;28;20564;-64
2023/08/12 06:51:49;;;;;;;3.88;2.08;;;;;;;-142.75;100.00;75562.56;5086255;28;20027;-65
2023/08/12 06:54:14;;;;;;;3.08;2.10;;;;;;;-142.75;100.00;75556.66;5087153;28;20055;-65
2023/08/12 06:56:39;;;;;;;3.17;1.98;;;;;;;-142.75;100.00;75548.78;5088989;28;20111;-64
2023/08/12 06:59:05;;;;;;;4.40;1.92;;;;;;;-142.75;100.00;75542.88;5089018;28;20016;-64
2023/08/12 07:01:31;;;;;;;4.60;1.80;;;;;;;-142.75;100.00;75540.91;5088643;28;20016;-65
2023/08/12 07:03:56;;;;;;;3.92;2.10;;;;;;;-142.75;100.00;75533.03;5089017;28;20101;-65
2023/08/12 07:06:22;;;;;;;4.93;1.73;;;;;;;-142.75;100.00;75531.06;5088715;28;20024;-64
2023/08/12 07:08:47;;;;;;;4.55;1.80;;;;;;;-142.75;100.00;75527.13;5088625;28;20023;-65
2023/08/12 07:11:13;;;;;;;2.75;1.80;;;;;;;-142.75;100.00;75529.09;5069265;28;20020;-64
2023/08/12 07:13:38;;;;;;;3.72;1.85;;;;;;;-142.75;100.00;75527.13;5067873;28;20055;-64
2023/08/12 07:16:03;;;;;;;2.85;1.67;;;;;;;-142.75;100.00;75542.88;5068532;28;20111;-64
2023/08/12 07:18:29;;;;;;;2.47;1.40;;;;;;;-142.75;100.00;75535.00;5068192;28;20153;-64
2023/08/12 07:20:54;;;;;;;4.03;2.05;;;;;;;-142.75;100.00;75523.19;5068274;28;20032;-64
2023/08/12 07:23:20;;;;;;;2.88;1.52;;;;;;;-142.75;100.00;75521.22;5067911;28;20099;-63
2023/08/12 07:25:46;;;;;;;3.17;1.50;;;;;;;-142.75;100.00;75527.13;5068012;28;20063;-64
2023/08/12 07:28:12;;;;;;;4.88;1.48;;;;;;;-142.75;100.00;75574.38;5068294;28;20043;-64
2023/08/12 07:30:37;;;;;;;6.45;1.25;;;;;;;-142.75;100.00;75684.56;5067911;28;20476;-64
2023/08/12 07:33:03;;;;;;;4.43;1.40;;;;;;;-142.75;100.00;75743.63;5068162;28;20095;-63
2023/08/12 07:35:29;;;;;;;4.65;1.40;;;;;;;-142.75;100.00;75786.91;5068147;28;20012;-64
2023/08/12 07:37:54;;;;;;;3.53;1.35;;;;;;;-142.75;100.00;75790.84;5066766;28;20039;-63
2023/08/12 07:40:19;;;;;;;4.00;1.33;;;;;;;-142.75;100.00;75806.59;5068037;28;20024;-64
2023/08/12 07:42:45;;;;;;;5.40;1.65;;;;;;;-142.75;100.00;75818.41;5067548;28;20358;-64
2023/08/12 07:45:10;;;;;;;5.05;1.50;;;;;;;-142.75;100.00;75812.50;5067627;28;20024;-64
2023/08/12 07:47:36;;;;;;;6.95;1.52;;;;;;;-142.75;100.00;75802.66;5067677;28;20016;-63
2023/08/12 07:50:01;;;;;;;4.72;1.55;;;;;;;-142.75;100.00;75828.25;5066524;28;20020;-64
2023/08/12 07:52:26;;;;;;;7.90;2.35;;;;;;;-142.75;100.00;75826.28;5067523;28;20017;-62
2023/08/12 07:54:52;;;;;;;3.22;1.30;;;;;;;-142.75;100.00;75814.47;5067450;28;20073;-64
2023/08/12 07:57:17;;;;;;;5.95;1.50;;;;;;;-142.75;100.00;75838.09;5067442;28;20017;-64
2023/08/12 07:59:42;;;;;;;3.72;1.45;;;;;;;-142.75;100.00;75844.00;5067690;28;20109;-64
2023/08/12 08:02:08;;;;;;;4.35;1.45;;;;;;;-142.75;100.00;75873.50;5067934;28;20017;-64
2023/08/12 08:04:33;;;;;;;3.42;1.08;;;;;;;-142.75;100.00;75865.63;5071119;28;20458;-63
2023/08/12 08:06:59;;;;;;;5.88;1.48;;;;;;;-142.75;100.00;75861.69;5085962;28;20505;-64
2023/08/12 08:09:24;;;;;;;7.57;1.75;;;;;;;-142.75;100.00;75844.00;5086338;28;20092;-64
2023/08/12 08:11:50;;;;;;;5.28;1.52;;;;;;;-142.75;100.00;75847.94;5074001;28;20020;-64
2023/08/12 08:14:15;;;;;;;6.45;1.52;;;;;;;-142.75;100.00;75857.78;5071904;28;20070;-64
2023/08/12 08:16:41;;;;;;;4.95;1.40;;;;;;;-142.75;100.00;75849.91;5069035;28;20019;-64
2023/08/12 08:19:07;;;;;;;6.15;1.38;;;;;;;-142.75;100.00;75808.56;5066981;28;20020;-63
2023/08/12 08:21:32;;;;;;;5.28;1.35;;;;;;;-142.75;100.00;75834.16;5072083;28;20539;-63
2023/08/12 08:23:57;;;;;;;6.25;1.33;;;;;;;-142.75;100.00;75802.66;5071075;28;20020;-63
2023/08/12 08:26:23;;;;;;;5.15;1.50;;;;;;;-142.75;100.00;75777.06;5070315;28;20162;-64
2023/08/12 08:28:48;;;;;;;3.95;1.50;;;;;;;-142.75;100.00;75769.19;5066926;28;20388;-64
2023/08/12 08:31:13;;;;;;;6.30;1.80;;;;;;;-142.75;100.00;75784.94;5066725;28;20107;-64
2023/08/12 08:33:39;;;;;;;5.03;1.42;;;;;;;-142.75;100.00;75792.81;5067007;28;20073;-64
2023/08/12 08:36:04;;;;;;;3.20;1.40;;;;;;;-142.75;100.00;75782.97;5071283;28;20495;-62
2023/08/12 08:38:30;;;;;;;4.80;1.55;;;;;;;-142.75;100.00;75779.03;5079848;28;20035;-64
2023/08/12 08:40:57;;;;;;;8.93;1.98;;;;;;;-142.75;100.00;75773.13;5080673;28;20038;-64
2023/08/12 08:43:25;;;;;;;6.97;1.60;;;;;;;-142.75;100.00;75765.25;5075934;28;20617;-64
2023/08/12 08:45:55;;;;;;;4.40;1.90;;;;;;;-142.75;100.00;75743.63;5076710;28;20038;-64
2023/08/12 08:48:21;;;;;;;6.22;1.48;;;;;;;-142.75;100.00;75731.81;5082325;28;20036;-63
2023/08/12 08:50:47;;;;;;;5.25;1.50;;;;;;;-142.75;100.00;75694.41;5078635;28;20027;-64
2023/08/12 08:53:15;;;;;;;8.18;1.55;;;;;;;-142.75;100.00;75641.28;5077914;28;20036;-64
2023/08/12 08:55:41;;;;;;;7.10;1.83;;;;;;;-142.75;100.00;75639.31;5081107;28;20116;-64
2023/08/12 08:58:07;;;;;;;5.65;1.55;;;;;;;-142.75;100.00;75643.25;5075622;28;20052;-64
2023/08/12 09:00:32;;;;;;;4.13;1.10;;;;;;;-142.75;100.00;75594.06;5073898;28;20021;-64
2023/08/12 09:02:58;;;;;;;3.10;1.40;;;;;;;-142.75;100.00;75578.31;5066033;28;20385;-64
2023/08/12 09:05:25;;;;;;;8.15;2.10;;;;;;;-142.75;100.00;75546.81;5065061;28;20037;-65
2023/08/12 09:07:51;;;;;;;4.43;1.45;;;;;;;-142.75;100.00;75535.00;5065842;28;20078;-64
2023/08/12 09:10:21;;;;;;;4.60;1.67;;;;;;;-142.75;100.00;75493.69;5066347;28;20032;-65
2023/08/12 09:12:47;;;;;;;5.85;1.50;;;;;;;-142.75;100.00;75485.81;5065834;28;20025;-65
2023/08/12 09:15:12;;;;;;;4.75;1.38;;;;;;;-142.75;100.00;75475.97;5066035;28;20020;-65
2023/08/12 09:17:38;;;;;;;5.00;1.38;;;;;;;-142.75;100.00;75438.56;5066381;28;20029;-64
2023/08/12 09:20:11;;;;;;;6.63;1.90;;;;;;;-142.75;100.00;75424.81;5065983;28;20078;-65
2023/08/12 09:22:36;;;;;;;4.57;1.42;;;;;;;-142.75;100.00;75422.84;5065877;28;20040;-65
2023/08/12 09:25:04;;;;;;;5.60;1.27;;;;;;;-142.75;100.00;75452.34;5065552;28;20036;-65
2023/08/12 09:27:31;;;;;;;4.53;1.38;;;;;;;-142.75;100.00;75495.66;5084709;28;20032;-65
2023/08/12 09:29:57;;;;;;;4.97;1.45;;;;;;;-142.75;100.00;75523.19;5085802;28;20387;-65
2023/08/12 09:32:23;;;;;;;6.15;1.20;;;;;;;-142.75;100.00;75641.28;5085581;28;20395;-65
2023/08/12 09:34:49;;;;;;;4.28;1.10;;;;;;;-142.75;100.00;75603.88;5080752;28;20020;-65
2023/08/12 09:37:15;;;;;;;7.78;1.48;;;;;;;-142.75;100.00;75586.19;5065201;28;20050;-66
2023/08/12 09:39:41;;;;;;;8.52;1.40;;;;;;;-142.75;100.00;75597.97;5064130;28;20031;-65
2023/08/12 09:42:06;;;;;;;6.50;1.30;;;;;;;-142.75;100.00;75546.81;5066863;28;20126;-64
2023/08/12 09:44:39;;;;;;;7.38;1.52;;;;;;;-142.75;100.00;75562.56;5067638;28;20047;-64
2023/08/12 09:47:06;;;;;;;5.78;1.50;;;;;;;-142.75;100.00;75554.69;5068000;28;20171;-64
2023/08/12 09:49:31;;;;;;;4.03;1.02;;;;;;;-142.75;100.00;75536.97;5071615;28;20016;-64
2023/08/12 09:51:57;;;;;;;7.13;1.35;;;;;;;-142.75;100.00;75556.66;5088093;28;20032;-64
2023/08/12 09:54:26;;;;;;;6.07;1.20;;;;;;;-142.75;100.00;75607.81;5084037;28;20130;-64
2023/08/12 09:56:56;;;;;;;5.88;1.38;;;;;;;-142.75;100.00;75609.78;5066405;28;20028;-66
2023/08/12 09:59:23;;;;;;;6.72;1.13;;;;;;;-142.75;100.00;75596.00;5071964;28;20103;-66
2023/08/12 10:01:50;;;;;;;5.10;1.58;;;;;;;-142.75;100.00;75617.66;5075050;28;20024;-66
2023/08/12 10:04:18;;;;;;;4.10;1.38;;;;;;;-142.75;100.00;75696.38;5076078;28;20149;-66
2023/08/12 10:06:45;;;;;;;6.72;1.58;;;;;;;-142.75;100.00;75708.19;5075578;28;20082;-66
2023/08/12 10:09:11;;;;;;;6.00;1.50;;;;;;;-142.75;100.00;75727.88;5070533;28;20035;-66
2023/08/12 10:11:37;;;;;;;10.57;1.50;;;;;;;-142.75;100.00;75672.78;5071404;28;20020;-67
2023/08/12 10:14:04;;;;;;;6.53;1.40;;;;;;;-142.75;100.00;75688.50;5076892;28;20561;-67
2023/08/12 10:16:30;;;;;;;7.13;1.38;;;;;;;-142.75;100.00;75637.34;5076191;28;20500;-66
2023/08/12 10:19:00;;;;;;;7.25;1.55;;;;;;;-142.75;100.00;75635.38;5077859;28;20032;-66
2023/08/12 10:21:26;;;;;;;8.38;1.95;;;;;;;-142.75;100.00;75568.47;5080906;28;20028;-66
2023/08/12 10:23:53;;;;;;;6.05;1.60;;;;;;;-142.75;100.00;75509.44;5081889;28;20487;-67
2023/08/12 10:26:19;;;;;;;5.43;1.33;;;;;;;-142.75;100.00;75521.22;5078178;28;20036;-66
2023/08/12 10:28:45;;;;;;;7.00;1.70;;;;;;;-142.75;100.00;75499.59;5074934;28;20624;-67
2023/08/12 10:31:11;;;;;;;6.65;1.23;;;;;;;-142.75;100.00;75468.09;5080285;28;20036;-67
2023/08/12 10:33:38;;;;;;;9.02;1.48;;;;;;;-142.75;100.00;75464.16;5083821;28;20028;-67
2023/08/12 10:36:05;;;;;;;11.23;2.10;;;;;;;-142.75;100.00;75472.03;5080059;28;20042;-66
2023/08/12 10:38:32;;;;;;;6.55;1.45;;;;;;;-142.75;100.00;75448.41;5078378;28;20025;-67
2023/08/12 10:41:15;;;;;;;6.57;1.40;;;;;;;-142.75;100.00;75401.19;5079562;28;20115;-66
2023/08/12 10:43:50;;;;;;;4.40;1.20;;;;;;;-142.75;100.00;75407.09;5073871;28;20079;-66
2023/08/12 10:46:36;;;;;;;8.80;1.98;;;;;;;-142.75;100.00;75418.91;5073581;28;20444;-66
2023/08/12 10:49:09;;;;;;;10.13;1.88;;;;;;;-142.75;100.00;75432.69;5092983;28;20078;-65
2023/08/12 10:51:41;;;;;;;7.78;1.60;;;;;;;-142.75;100.00;75385.44;5093564;28;20050;-65
2023/08/12 10:54:30;;;;;;;6.68;1.40;;;;;;;-142.75;100.00;75359.88;5093159;28;20116;-65
2023/08/12 10:57:11;;;;;;;7.95;2.17;;;;;;;-142.75;100.00;75355.94;5080220;28;20064;-66
2023/08/12 10:59:45;;;;;;;4.82;1.40;;;;;;;-142.75;100.00;75346.09;5073190;28;20033;-66